Latest Weather Observations for Rhyll

IDV60801

Issued at 11:02 pm EDT Saturday 28 March 2015 (issued every 30 minutes, with the page automatically refreshed every 10 minutes)

About weather observations | Map of weather stations | Latest weather observations for VIC | Other Formats
Station Details ID: 086373 Name: RHYLL Lat: -38.46 Lon: 145.31 Height: 13.4 m
Data from the previous 72 hours. | See also: Recent months at Rhyll
Date/Time
EDT
Temp
°C
App
Temp
°C
Dew
Point
Rel
Hum
%
Delta-T
°C
Wind Press
QNH
hPa
Press
MSL
hPa
Rain
since 9 am
mm
Dir
 
Spd
km/h
Gust
km/h
Spd
kts
Gust
kts
28/11:00pm 13.1 12.2 9.4 78 1.9 WSW 4 4 2 2 1022.6 1022.6 0.0
28/10:30pm 13.3 12.1 9.4 77 2.0 WSW 6 6 3 3 1022.6 1022.6 0.0
28/10:00pm 13.5 12.3 9.6 77 2.0 WSW 6 7 3 4 1022.7 1022.7 0.0
28/09:30pm 13.5 12.3 9.4 76 2.1 WSW 6 6 3 3 1022.7 1022.7 0.0
28/09:00pm 13.6 12.3 9.3 75 2.2 WSW 6 6 3 3 1022.6 1022.6 0.0
28/08:30pm 13.9 12.7 9.5 75 2.3 WSW 6 7 3 4 1022.5 1022.5 0.0
28/08:00pm 14.1 12.9 9.5 74 2.3 WSW 6 7 3 4 1022.3 1022.3 0.0
28/07:30pm 14.3 13.2 9.9 75 2.3 SW 6 6 3 3 1022.3 1022.3 0.0
28/07:00pm 15.3 14.2 9.9 70 2.8 SW 6 9 3 5 1022.3 1022.3 0.0
28/06:30pm 16.7 16.7 11.0 69 3.1 SSW 2 9 1 5 1022.4 1022.4 0.0
28/06:00pm 17.1 17.1 11.2 68 3.2 S 2 7 1 4 1022.4 1022.4 0.0
28/05:30pm 15.8 15.1 11.4 75 2.4 N 6 7 3 4 1022.8 1022.8 0.0
28/05:00pm 15.8 14.8 11.0 73 2.6 N 7 9 4 5 1022.8 1022.8 0.0
28/04:30pm 15.9 15.1 11.1 73 2.6 N 6 9 3 5 1023.0 1023.0 0.0
28/04:00pm 16.3 15.9 11.0 71 2.8 NW 4 9 2 5 1023.3 1023.3 0.0
28/03:30pm 15.9 15.1 10.9 72 2.7 WSW 6 9 3 5 1023.4 1023.4 0.0
28/03:00pm 15.9 15.1 11.1 73 2.6 W 6 11 3 6 1023.8 1023.8 0.0
28/02:30pm 15.3 14.3 11.1 76 2.2 W 7 13 4 7 1023.9 1023.9 0.0
28/02:00pm 15.4 14.7 12.0 80 1.8 W 7 13 4 7 1024.3 1024.3 0.0
28/01:30pm 15.0 14.3 12.0 82 1.6 W 7 15 4 8 1024.5 1024.5 0.0
28/01:00pm 15.3 13.8 11.9 80 1.8 NNW 11 15 6 8 1024.8 1024.8 0.0
28/12:30pm 16.3 15.3 11.0 71 2.8 WSW 7 15 4 8 1025.0 1025.0 0.0
28/12:00pm 14.8 14.0 11.6 81 1.7 W 7 13 4 7 1025.3 1025.3 0.0
28/11:30am 14.2 13.7 12.2 88 1.1 NNW 6 7 3 4 1025.4 1025.4 0.0
28/11:00am 14.6 14.6 11.2 80 1.8 SSE 2 9 1 5 1025.6 1025.6 0.0
28/10:30am 16.0 15.5 12.2 78 2.1 SSE 6 9 3 5 1025.7 1025.7 0.0
28/10:00am 15.1 14.8 12.8 86 1.3 S 6 9 3 5 1025.7 1025.7 0.0
28/09:30am 14.1 12.8 11.3 83 1.5 SW 9 13 5 7 1025.6 1025.6 0.0
28/09:00am 14.3 13.8 12.0 86 1.2 W 6 11 3 6 1025.3 1025.3 1.6
28/08:30am 13.0 12.2 11.1 88 1.0 W 6 9 3 5 1025.1 1025.1 1.6
28/08:00am 13.2 12.3 10.6 84 1.3 W 6 9 3 5 1024.7 1024.7 1.6
28/07:30am 13.3 12.4 10.5 83 1.5 W 6 9 3 5 1024.5 1024.5 1.6
28/07:00am 13.4 12.5 10.8 84 1.4 WSW 6 9 3 5 1024.3 1024.3 1.6
28/06:30am 13.4 12.6 9.8 79 1.8 W 4 6 2 3 1024.2 1024.2 1.6
28/06:00am 13.5 13.1 9.7 78 1.9 W 2 6 1 3 1024.1 1024.1 1.6
28/05:30am 13.4 11.4 10.0 80 1.8 SW 11 17 6 9 1024.0 1024.0 1.6
28/05:00am 14.0 12.8 10.4 79 1.9 SW 7 20 4 11 1023.8 1023.8 1.6
28/04:30am 14.1 12.4 9.9 76 2.2 SW 9 13 5 7 1023.7 1023.7 1.6
28/04:00am 14.1 12.4 9.9 76 2.2 SW 9 13 5 7 1023.6 1023.6 1.6
28/03:30am 14.0 12.3 10.0 77 2.1 SW 9 17 5 9 1023.7 1023.7 1.6
28/03:00am 14.4 12.8 10.2 76 2.2 WSW 9 17 5 9 1023.7 1023.7 1.6
28/02:30am 14.5 12.9 10.1 75 2.3 SW 9 17 5 9 1023.8 1023.8 1.6
28/02:00am 14.5 12.4 9.9 74 2.4 WSW 11 19 6 10 1024.0 1024.0 1.6
28/01:30am 14.4 12.4 10.0 75 2.3 SW 11 17 6 9 1024.0 1024.0 1.6
28/01:00am 14.6 12.5 9.8 73 2.5 SW 11 19 6 10 1024.0 1024.0 1.6
28/12:30am 14.8 11.7 10.2 74 2.4 SW 17 28 9 15 1024.0 1024.0 1.6
28/12:00am 14.7 12.1 10.7 77 2.1 SW 15 26 8 14 1024.1 1024.1 1.6
 
Date/Time
EDT
Temp
°C
App
Temp
°C
Dew
Point
Rel
Hum
%
Delta-T
°C
Wind Press
QNH
hPa
Press
MSL
hPa
Rain
since 9 am
mm
Dir
 
Spd
km/h
Gust
km/h
Spd
kts
Gust
kts
27/11:30pm 14.8 12.1 10.2 74 2.4 SW 15 22 8 12 1024.3 1024.3 1.6
27/11:00pm 14.0 12.6 10.8 81 1.7 WSW 9 19 5 10 1024.4 1024.4 1.6
27/10:30pm 14.1 12.0 11.1 82 1.6 WSW 13 24 7 13 1024.3 1024.3 1.6
27/10:00pm 14.5 12.7 10.7 78 2.0 WSW 11 22 6 12 1024.2 1024.2 1.6
27/09:30pm 14.1 13.1 11.1 82 1.6 WSW 7 19 4 10 1024.2 1024.2 1.6
27/09:00pm 13.7 12.5 10.3 80 1.8 WSW 7 15 4 8 1024.1 1024.1 1.6
27/08:30pm 14.1 12.3 10.9 81 1.7 WSW 11 33 6 18 1023.9 1023.9 1.6
27/08:00pm 13.8 12.9 11.3 85 1.3 WSW 7 17 4 9 1023.6 1023.6 1.6
27/07:30pm 13.9 11.2 10.5 80 1.8 WSW 15 24 8 13 1023.5 1023.5 1.2
27/07:00pm 14.7 13.4 10.1 74 2.4 WSW 7 15 4 8 1023.1 1023.1 1.2
27/06:30pm 14.3 12.4 10.5 78 2.0 WSW 11 19 6 10 1023.0 1023.0 1.2
27/06:00pm 14.6 11.2 10.4 76 2.2 WSW 19 32 10 17 1022.8 1022.8 1.2
27/05:30pm 15.1 12.0 10.3 73 2.5 WSW 17 28 9 15 1022.4 1022.4 1.2
27/05:00pm 15.1 12.6 10.9 76 2.2 WSW 15 33 8 18 1022.3 1022.3 1.2
27/04:30pm 14.3 12.0 11.6 84 1.4 WSW 15 28 8 15 1022.2 1022.2 1.2
27/04:00pm 15.0 11.8 11.2 78 2.0 WSW 19 33 10 18 1022.0 1022.0 0.8
27/03:30pm 15.5 12.1 10.5 72 2.6 WSW 19 35 10 19 1022.2 1022.2 0.8
27/03:00pm 15.7 12.1 10.0 69 3.0 WSW 19 39 10 21 1022.1 1022.1 0.8
27/02:30pm 15.3 12.0 10.9 75 2.3 WSW 19 39 10 21 1022.3 1022.3 0.8
27/02:00pm 14.7 11.3 10.5 76 2.2 WSW 19 35 10 19 1022.4 1022.4 0.8
27/01:30pm 14.5 10.5 10.3 76 2.2 WSW 22 48 12 26 1022.6 1022.6 0.8
27/01:00pm 15.0 10.8 9.8 71 2.7 WSW 22 41 12 22 1022.6 1022.6 0.8
27/12:30pm 14.2 11.2 10.8 80 1.8 WSW 17 33 9 18 1022.6 1022.6 0.8
27/12:00pm 14.8 11.1 10.2 74 2.4 WSW 20 41 11 22 1022.3 1022.3 0.8
27/11:30am 14.9 11.7 11.3 79 1.9 WSW 19 39 10 21 1022.0 1022.0 0.8
27/11:00am 14.0 9.7 10.8 81 1.7 WSW 24 43 13 23 1022.0 1022.0 0.8
27/10:30am 14.7 10.9 11.1 79 1.9 WSW 22 43 12 23 1021.5 1021.5 0.8
27/10:00am 13.9 10.5 11.4 85 1.3 WSW 20 35 11 19 1021.2 1021.2 0.8
27/09:30am 13.5 9.7 11.2 86 1.2 WSW 22 44 12 24 1020.7 1020.7 0.8
27/09:00am 13.5 10.6 10.9 84 1.4 WSW 17 32 9 17 1020.5 1020.5 28.2
27/08:30am 13.3 10.0 11.0 86 1.2 WSW 19 39 10 21 1019.9 1019.9 28.0
27/08:00am 13.4 9.5 10.8 84 1.4 WSW 22 46 12 25 1019.3 1019.3 27.8
27/07:30am 12.7 9.2 10.8 88 1.0 WSW 20 41 11 22 1019.1 1019.1 27.8
27/07:00am 13.4 9.3 10.2 81 1.7 WSW 22 48 12 26 1018.5 1018.5 27.2
27/06:30am 13.9 9.7 9.9 77 2.1 WSW 22 39 12 21 1018.0 1018.0 27.2
27/06:00am 13.8 9.8 10.4 80 1.8 WSW 22 35 12 19 1017.8 1017.8 27.2
27/05:30am 13.6 9.6 10.4 81 1.7 W 22 41 12 22 1017.7 1017.7 27.2
27/05:00am 12.4 10.3 11.0 91 0.7 WSW 13 24 7 13 1017.6 1017.6 27.2
27/04:30am 12.3 9.0 10.9 91 0.7 SW 19 30 10 16 1017.5 1017.5 25.0
27/04:00am 12.0 9.0 10.7 92 0.7 WSW 17 32 9 17 1017.4 1017.4 24.0
27/03:30am 13.9 10.3 9.7 76 2.2 WSW 19 35 10 19 1017.1 1017.1 20.0
27/03:00am 14.1 10.7 10.7 80 1.8 WSW 19 39 10 21 1017.1 1017.1 20.0
27/02:30am 13.5 10.8 10.3 81 1.7 WSW 15 30 8 16 1017.0 1017.0 20.0
27/02:00am 13.1 10.3 11.3 89 0.9 W 17 33 9 18 1016.7 1016.7 20.0
27/01:30am 12.7 11.2 11.8 94 0.5 W 11 20 6 11 1016.7 1016.7 20.0
27/01:00am 13.0 11.1 11.7 92 0.7 WNW 13 28 7 15 1016.4 1016.4 13.8
27/12:30am 13.1 11.2 11.8 92 0.7 WNW 13 24 7 13 1016.3 1016.3 13.6
27/12:00am 12.9 10.6 11.8 93 0.6 W 15 26 8 14 1016.5 1016.5 13.6
 
Date/Time
EDT
Temp
°C
App
Temp
°C
Dew
Point
Rel
Hum
%
Delta-T
°C
Wind Press
QNH
hPa
Press
MSL
hPa
Rain
since 9 am
mm
Dir
 
Spd
km/h
Gust
km/h
Spd
kts
Gust
kts
26/11:30pm 12.3 9.4 10.9 91 0.7 W 17 30 9 16 1016.6 1016.6 12.6
26/11:00pm 12.6 10.5 11.2 91 0.7 W 13 32 7 17 1016.4 1016.4 11.6
26/10:30pm 12.5 10.9 11.4 93 0.6 WSW 11 24 6 13 1016.3 1016.3 10.8
26/10:00pm 12.9 10.8 11.3 90 0.8 W 13 32 7 17 1016.1 1016.1 5.6
26/09:30pm 13.2 10.1 11.6 90 0.9 WNW 19 35 10 19 1015.7 1015.7 4.0
26/09:00pm 13.7 11.2 11.0 84 1.4 WNW 15 32 8 17 1015.2 1015.2 2.8
26/08:30pm 13.9 10.7 11.1 83 1.5 WNW 19 35 10 19 1014.6 1014.6 2.4
26/08:00pm 13.8 10.9 11.1 84 1.4 WNW 17 35 9 19 1014.3 1014.3 2.4
26/07:30pm 13.9 10.7 11.1 83 1.5 NW 19 41 10 22 1014.1 1014.1 2.4
26/07:00pm 13.6 10.1 10.8 83 1.5 NW 20 39 11 21 1014.0 1014.0 2.4
26/06:30pm 13.6 9.1 10.0 79 1.9 NW 24 44 13 24 1013.9 1013.9 2.4
26/06:13pm 13.4 8.1 9.8 79 1.8 NNW 28 46 15 25 1014.0 1014.0 2.4
26/06:00pm 13.0 7.0 10.2 83 1.4 NNW 32 50 17 27 1014.0 1014.0 2.4
26/05:30pm 12.8 7.5 9.8 82 1.5 NNW 28 48 15 26 1014.1 1014.1 2.0
26/05:00pm 12.4 8.5 8.7 78 1.8 NW 19 35 10 19 1014.8 1014.8 1.2
26/04:30pm 15.6 10.6 6.3 54 4.5 NW 22 39 12 21 1014.3 1014.3 0.0
26/04:00pm 15.9 9.6 5.8 51 4.9 NW 28 52 15 28 1014.3 1014.3 0.0
26/03:34pm 16.2 9.9 5.8 50 5.0 NW 28 52 15 28 1014.5 1014.5 0.0
26/03:30pm 15.9 9.7 4.3 46 5.4 NW 26 48 14 26 1014.7 1014.7 0.0
26/03:00pm 16.3 9.8 4.7 46 5.5 NW 28 54 15 29 1015.0 1015.0 0.0
26/02:30pm 16.9 10.8 6.4 50 5.2 NW 28 52 15 28 1015.5 1015.5 0.0
26/02:26pm 16.1 9.2 4.5 46 5.4 NNW 30 52 16 28 1015.5 1015.5 0.0
26/02:00pm 15.7 11.5 5.9 52 4.7 NW 17 35 9 19 1015.8 1015.8 0.0
26/01:30pm 16.0 11.5 6.2 52 4.8 NW 19 41 10 22 1016.1 1016.1 0.0
26/01:00pm 15.4 11.4 5.0 50 4.9 WNW 15 35 8 19 1016.5 1016.5 0.0
26/12:30pm 15.3 11.6 6.1 54 4.4 NW 15 33 8 18 1016.6 1016.6 0.0
26/12:00pm 14.8 11.2 6.9 59 3.9 NW 15 32 8 17 1016.8 1016.8 0.0
26/11:30am 14.8 11.4 6.1 56 4.2 WNW 13 28 7 15 1017.0 1017.0 0.0
26/11:00am 14.4 10.5 7.0 61 3.6 WNW 17 32 9 17 1016.9 1016.9 0.0
26/10:30am 13.6 9.9 6.5 62 3.4 WNW 15 28 8 15 1017.0 1017.0 0.0
26/10:00am 13.0 10.0 7.5 69 2.7 NW 13 28 7 15 1016.9 1016.9 0.0
26/09:30am 12.5 9.0 7.0 69 2.6 WNW 15 28 8 15 1016.9 1016.9 0.0
26/09:00am 12.7 9.7 7.8 72 2.4 WNW 13 26 7 14 1016.6 1016.6 0.6
26/08:30am 11.6 8.9 7.3 75 2.1 WNW 11 24 6 13 1016.3 1016.3 0.6
26/08:00am 11.6 8.3 7.9 78 1.8 NW 15 30 8 16 1016.0 1016.0 0.6
26/07:30am 11.3 8.2 7.4 77 1.9 WNW 13 28 7 15 1015.7 1015.7 0.6
26/07:00am 11.3 8.2 7.4 77 1.9 WNW 13 32 7 17 1015.6 1015.6 0.6
26/06:30am 11.4 8.8 7.9 79 1.7 NW 11 22 6 12 1015.2 1015.2 0.6
26/06:00am 11.5 9.4 8.2 80 1.6 WNW 9 20 5 11 1015.1 1015.1 0.6
26/05:30am 11.4 8.9 8.1 80 1.6 NW 11 28 6 15 1014.8 1014.8 0.6
26/05:00am 11.1 8.0 8.7 85 1.2 NW 15 26 8 14 1014.5 1014.5 0.6
26/04:30am 10.7 8.6 8.3 85 1.2 NW 9 22 5 12 1014.6 1014.6 0.6
26/04:00am 12.1 9.3 6.8 70 2.5 WNW 11 22 6 12 1014.5 1014.5 0.0
26/03:30am 12.7 9.9 7.0 68 2.7 WNW 11 24 6 13 1014.3 1014.3 0.0
26/03:00am 12.9 9.8 7.1 68 2.8 W 13 24 7 13 1014.5 1014.5 0.0
26/02:30am 13.0 9.2 7.5 69 2.7 W 17 28 9 15 1014.6 1014.6 0.0
26/02:00am 13.5 9.5 9.0 74 2.3 W 20 35 11 19 1014.5 1014.5 0.0
26/01:30am 14.3 10.7 9.9 75 2.3 NW 19 46 10 25 1014.0 1014.0 0.0
26/01:18am 14.7 11.1 11.8 83 1.6 N 22 46 12 25 1013.5 1013.5 0.0
26/01:00am 14.7 13.0 12.6 87 1.1 NNE 13 20 7 11 1013.1 1013.0 0.0
26/12:30am 15.0 14.1 12.7 86 1.3 NNE 9 17 5 9 1013.5 1013.5 0.0
26/12:00am 14.6 13.4 11.7 83 1.6 NE 9 13 5 7 1013.7 1013.7 0.0
 
Date/Time
EDT
Temp
°C
App
Temp
°C
Dew
Point
Rel
Hum
%
Delta-T
°C
Wind Press
QNH
hPa
Press
MSL
hPa
Rain
since 9 am
mm
Dir
 
Spd
km/h
Gust
km/h
Spd
kts
Gust
kts
25/11:30pm 15.1 14.6 12.8 86 1.3 NNE 7 9 4 5 1014.0 1014.0 0.0

Other Formats:

Comma delimited format used in spreadsheet applications
http://www.bom.gov.au/fwo/IDV60801/IDV60801.94892.axf

JavaScript Object Notation format (JSON) in row-major order
http://www.bom.gov.au/fwo/IDV60801/IDV60801.94892.json